createdAt,value
2019-03-02T00:00:48.450Z,18.37
2019-03-02T00:03:51.610Z,18.57
2019-03-02T00:06:54.786Z,18.80
2019-03-02T00:09:58.003Z,19.80
2019-03-02T00:13:03.971Z,19.07
2019-03-02T00:16:07.511Z,18.80
2019-03-02T00:19:07.953Z,19.87
2019-03-02T00:22:10.977Z,19.47
2019-03-02T00:25:14.167Z,19.17
2019-03-02T00:28:17.367Z,19.57
2019-03-02T00:31:20.558Z,18.77
2019-03-02T00:34:23.743Z,20.10
2019-03-02T00:37:29.579Z,19.83
2019-03-02T00:40:30.415Z,18.03
2019-03-02T00:43:33.234Z,19.20
2019-03-02T00:46:36.431Z,18.60
2019-03-02T00:49:39.620Z,18.73
2019-03-02T00:52:42.814Z,18.47
2019-03-02T00:55:46.018Z,18.33
2019-03-02T00:58:49.191Z,19.03
2019-03-02T01:01:52.291Z,19.73
2019-03-02T01:04:57.860Z,20.27
2019-03-02T01:07:59.783Z,22.13
2019-03-02T01:11:01.679Z,22.17
2019-03-02T01:14:04.904Z,21.97
2019-03-02T01:17:08.063Z,19.27
2019-03-02T01:20:12.290Z,18.83
2019-03-02T01:23:15.479Z,20.53
2019-03-02T01:26:20.538Z,20.20
2019-03-02T01:29:21.760Z,19.13
2019-03-02T01:32:24.963Z,19.03
2019-03-02T01:35:28.071Z,18.67
2019-03-02T01:38:31.244Z,19.10
2019-03-02T01:41:34.347Z,19.20
2019-03-02T01:44:37.535Z,18.97
2019-03-02T01:47:40.726Z,18.97
2019-03-02T01:50:47.622Z,18.47
2019-03-02T01:53:47.134Z,18.60
2019-03-02T01:56:50.310Z,18.60
2019-03-02T01:59:53.497Z,18.40
2019-03-02T02:02:56.699Z,19.70
2019-03-02T02:05:59.892Z,18.10
2019-03-02T02:09:05.762Z,18.67
2019-03-02T02:12:07.202Z,18.63
2019-03-02T02:15:12.918Z,18.53
2019-03-02T02:18:16.051Z,18.77
2019-03-02T02:21:19.247Z,18.43
2019-03-02T02:24:24.925Z,18.50
2019-03-02T02:27:25.631Z,19.50
2019-03-02T02:30:28.745Z,17.17
2019-03-02T02:33:31.920Z,19.43
2019-03-02T02:36:35.029Z,18.60
2019-03-02T02:39:38.103Z,18.33
2019-03-02T02:42:43.311Z,18.30
2019-03-02T02:45:49.053Z,17.97
2019-03-02T02:48:47.684Z,17.83
2019-03-02T02:51:51.539Z,18.77
2019-03-02T02:54:57.597Z,18.23
2019-03-02T02:57:57.881Z,19.00
2019-03-02T03:01:01.077Z,19.03
2019-03-02T03:04:04.283Z,17.80
2019-03-02T03:07:12.508Z,17.57
2019-03-02T03:10:18.058Z,17.30
2019-03-02T03:13:21.235Z,17.43
2019-03-02T03:16:24.426Z,17.10
2019-03-02T03:19:31.118Z,17.33
2019-03-02T03:22:31.463Z,17.60
2019-03-02T03:25:34.627Z,17.70
2019-03-02T03:28:37.832Z,19.33
2019-03-02T03:31:41.010Z,21.80
2019-03-02T03:34:44.201Z,20.60
2019-03-02T03:37:51.238Z,21.60
2019-03-02T03:40:50.608Z,21.50
2019-03-02T03:43:53.795Z,21.93
2019-03-02T03:47:00.765Z,22.77
2019-03-02T03:50:00.226Z,22.90
2019-03-02T03:53:03.256Z,23.67
2019-03-02T03:56:06.361Z,22.00
2019-03-02T03:59:14.063Z,23.20
2019-03-02T04:02:12.756Z,23.20
2019-03-02T04:05:15.962Z,23.40
2019-03-02T04:08:19.132Z,23.77
2019-03-02T04:11:22.248Z,22.10
2019-03-02T04:14:25.419Z,22.50
2019-03-02T04:17:28.513Z,22.87
2019-03-02T04:20:35.299Z,23.40
2019-03-02T04:23:38.488Z,23.47
2019-03-02T04:26:41.671Z,22.97
2019-03-02T04:29:50.213Z,23.40
2019-03-02T04:32:47.967Z,23.37
2019-03-02T04:35:51.172Z,21.60
2019-03-02T04:38:54.361Z,21.80
2019-03-02T04:41:57.555Z,24.57
2019-03-02T04:45:01.716Z,22.30
2019-03-02T04:48:04.720Z,22.03
2019-03-02T04:51:07.047Z,22.97
2019-03-02T04:54:10.134Z,22.60
2019-03-02T04:57:13.375Z,22.77
2019-03-02T05:00:16.629Z,21.90
2019-03-02T05:03:19.837Z,22.80
2019-03-02T05:06:23.007Z,21.77
2019-03-02T05:09:26.211Z,23.00
2019-03-02T05:12:29.326Z,22.00
2019-03-02T05:15:32.480Z,21.63
2019-03-02T05:18:35.684Z,20.20
2019-03-02T05:21:39.809Z,21.73
2019-03-02T05:24:43.573Z,22.30
2019-03-02T05:27:45.262Z,22.37
2019-03-02T05:30:48.358Z,22.80
2019-03-02T05:33:51.558Z,22.67
2019-03-02T05:36:54.731Z,21.37
2019-03-02T05:39:57.827Z,21.87
2019-03-02T05:43:01.015Z,23.90
2019-03-02T05:46:04.116Z,23.63
2019-03-02T05:49:07.315Z,24.77
2019-03-02T05:52:10.507Z,25.07
2019-03-02T05:55:18.017Z,23.60
2019-03-02T05:58:17.167Z,24.40
2019-03-02T06:01:20.091Z,25.17
2019-03-02T06:04:23.287Z,24.60
2019-03-02T06:07:26.491Z,24.63
2019-03-02T06:10:29.672Z,25.00
2019-03-02T06:13:32.778Z,25.37
2019-03-02T06:16:35.967Z,26.00
2019-03-02T06:19:39.067Z,24.40
2019-03-02T06:22:42.286Z,26.67
2019-03-02T06:25:45.540Z,27.73
2019-03-02T06:28:48.762Z,27.30
2019-03-02T06:31:53.959Z,25.97
2019-03-02T06:34:57.068Z,27.03
2019-03-02T06:37:59.351Z,26.80
2019-03-02T06:41:02.564Z,25.87
2019-03-02T06:44:05.743Z,25.57
2019-03-02T06:47:08.975Z,27.17
2019-03-02T06:50:12.553Z,26.33
2019-03-02T06:53:15.831Z,26.50
2019-03-02T06:56:19.098Z,26.97
2019-03-02T06:59:22.375Z,26.87
2019-03-02T07:02:25.524Z,25.63
2019-03-02T07:05:29.832Z,27.20
2019-03-02T07:08:32.762Z,27.63
2019-03-02T07:11:35.152Z,27.40
2019-03-02T07:14:38.400Z,27.60
2019-03-02T07:17:50.836Z,27.70
2019-03-02T07:20:54.111Z,28.00
2019-03-02T07:23:57.316Z,28.47
2019-03-02T07:27:00.966Z,28.53
2019-03-02T07:30:04.620Z,28.13
2019-03-02T07:33:07.918Z,27.93
2019-03-02T07:36:10.918Z,28.80
2019-03-02T07:39:14.057Z,28.33
2019-03-02T07:42:17.310Z,28.23
2019-03-02T07:45:20.508Z,28.17
2019-03-02T07:48:23.683Z,27.13
2019-03-02T07:51:26.889Z,28.07
2019-03-02T07:54:30.111Z,28.83
2019-03-02T07:57:33.273Z,30.30
2019-03-02T08:00:37.881Z,29.00
2019-03-02T08:03:39.682Z,28.37
2019-03-02T08:06:42.872Z,27.57
2019-03-02T08:09:46.043Z,28.23
2019-03-02T08:12:49.263Z,29.33
2019-03-02T08:15:52.472Z,29.33
2019-03-02T08:18:55.747Z,29.17
2019-03-02T08:21:58.939Z,29.10
2019-03-02T08:25:02.138Z,26.87
2019-03-02T08:28:06.776Z,28.27
2019-03-02T08:31:08.993Z,28.07
2019-03-02T08:34:11.715Z,27.13
2019-03-02T08:37:16.534Z,27.43
2019-03-02T08:40:19.265Z,27.90
2019-03-02T08:43:21.205Z,27.57
2019-03-02T08:46:24.391Z,27.50
2019-03-02T08:49:27.677Z,26.60
2019-03-02T08:52:31.908Z,27.53
2019-03-02T08:55:35.135Z,26.67
2019-03-02T08:58:38.288Z,25.73
2019-03-02T09:01:41.587Z,25.53
2019-03-02T09:04:47.244Z,25.33
2019-03-02T09:07:48.079Z,24.47
2019-03-02T09:10:51.284Z,24.97
2019-03-02T09:13:54.503Z,25.17
2019-03-02T09:16:57.662Z,24.30
2019-03-02T09:20:01.005Z,23.93
2019-03-02T09:23:04.043Z,23.67
2019-03-02T09:26:07.352Z,23.27
2019-03-02T09:29:10.549Z,23.20
2019-03-02T09:32:14.158Z,23.77
2019-03-02T09:35:17.257Z,23.37
2019-03-02T09:38:20.959Z,23.73
2019-03-02T09:41:25.361Z,23.10
2019-03-02T09:44:26.467Z,23.43
2019-03-02T09:47:29.721Z,22.87
2019-03-02T09:50:32.907Z,22.70
2019-03-02T09:53:36.117Z,22.13
2019-03-02T09:56:39.287Z,22.97
2019-03-02T09:59:45.440Z,23.47
2019-03-02T10:02:46.420Z,21.37
2019-03-02T10:05:49.868Z,22.73
2019-03-02T10:08:51.849Z,23.50
2019-03-02T10:11:55.146Z,22.63
2019-03-02T10:15:00.769Z,23.50
2019-03-02T10:18:01.556Z,23.80
2019-03-02T10:21:04.839Z,24.47
2019-03-02T10:24:08.059Z,22.83
2019-03-02T10:27:11.251Z,22.87
2019-03-02T10:30:16.141Z,23.37
2019-03-02T10:33:19.255Z,24.27
2019-03-02T10:36:25.780Z,23.23
2019-03-02T10:39:29.082Z,23.50
2019-03-02T10:42:31.903Z,22.23
2019-03-02T10:45:33.664Z,21.83
2019-03-02T10:48:35.320Z,20.73
2019-03-02T10:51:38.731Z,21.70
2019-03-02T10:54:41.931Z,21.37
2019-03-02T10:57:45.137Z,21.27
2019-03-02T11:00:48.308Z,20.33
2019-03-02T11:03:51.622Z,20.13
2019-03-02T11:07:00.988Z,20.03
2019-03-02T11:10:12.867Z,20.73
2019-03-02T11:13:51.866Z,20.60
2019-03-02T11:16:58.470Z,20.90
2019-03-02T11:20:07.115Z,19.10
2019-03-02T11:23:19.974Z,18.57
2019-03-02T11:26:26.561Z,19.63
2019-03-02T11:29:50.959Z,19.63
2019-03-02T11:32:56.969Z,20.27
2019-03-02T11:36:41.043Z,18.83
2019-03-02T11:40:50.382Z,18.30
2019-03-02T11:43:59.556Z,18.90
2019-03-02T11:47:06.939Z,17.33
2019-03-02T11:50:16.099Z,17.83
2019-03-02T11:53:24.181Z,17.27
2019-03-02T11:56:30.743Z,17.40
2019-03-02T11:59:42.119Z,17.43
2019-03-02T12:02:50.052Z,16.80
2019-03-02T12:06:05.768Z,16.60
2019-03-02T12:09:10.116Z,16.93
2019-03-02T12:12:51.249Z,15.97
2019-03-02T12:15:56.276Z,15.37
2019-03-02T12:19:05.375Z,16.10
2019-03-02T12:23:16.046Z,16.07
2019-03-02T12:26:30.323Z,14.73
2019-03-02T12:29:37.638Z,16.40
2019-03-02T12:32:54.679Z,16.20
2019-03-02T12:36:06.257Z,15.87
2019-03-02T12:39:13.619Z,15.43
2019-03-02T12:42:20.918Z,16.37
2019-03-02T12:47:36.002Z,14.90
2019-03-02T12:50:43.296Z,15.13
2019-03-02T12:54:04.395Z,14.77
2019-03-02T12:57:08.710Z,14.43
2019-03-02T13:00:22.337Z,14.13
2019-03-02T13:03:41.701Z,14.77
2019-03-02T13:08:53.149Z,13.43
2019-03-02T13:12:05.789Z,12.70
2019-03-02T13:15:11.252Z,13.27
2019-03-02T13:18:33.821Z,13.17
2019-03-02T13:21:43.007Z,13.40
2019-03-02T13:24:53.724Z,13.10
2019-03-02T13:28:02.275Z,12.53
2019-03-02T13:32:11.056Z,12.67
2019-03-02T13:35:23.427Z,12.13
2019-03-02T13:38:29.985Z,12.03
2019-03-02T13:42:36.909Z,12.90
2019-03-02T13:45:47.163Z,12.23
2019-03-02T13:49:01.668Z,13.27
2019-03-02T13:52:40.315Z,12.73
2019-03-02T13:55:49.469Z,12.53
2019-03-02T13:58:58.515Z,12.40
2019-03-02T14:02:07.164Z,12.53
2019-03-02T14:06:19.715Z,13.17
2019-03-02T14:09:35.123Z,12.93
2019-03-02T14:12:44.429Z,10.73
2019-03-02T14:16:24.229Z,11.10
2019-03-02T14:19:32.659Z,10.53
2019-03-02T14:22:49.015Z,10.73
2019-03-02T14:26:04.410Z,9.90
2019-03-02T14:29:12.252Z,9.90
2019-03-02T14:32:19.026Z,8.73
2019-03-02T14:35:28.243Z,8.13
2019-03-02T14:38:37.580Z,5.87
2019-03-02T14:41:48.861Z,6.40
2019-03-02T14:45:09.720Z,5.20
2019-03-02T14:49:17.586Z,4.40
2019-03-02T14:52:33.246Z,3.50
2019-03-02T14:55:50.232Z,3.53
2019-03-02T14:59:28.924Z,3.30
2019-03-02T15:03:09.781Z,3.90
2019-03-02T15:06:18.226Z,3.70
2019-03-02T15:09:25.625Z,3.03
2019-03-02T15:12:33.099Z,3.43
2019-03-02T15:15:44.567Z,3.13
2019-03-02T15:19:02.326Z,3.67
2019-03-02T15:22:08.267Z,4.37
2019-03-02T15:25:26.104Z,4.37
2019-03-02T15:28:33.995Z,4.90
2019-03-02T15:31:43.187Z,4.30
2019-03-02T15:34:50.099Z,4.60
2019-03-02T15:38:04.609Z,5.23
2019-03-02T15:41:09.191Z,5.60
2019-03-02T15:44:19.707Z,5.47
2019-03-02T15:47:30.980Z,6.57
2019-03-02T15:50:40.323Z,5.80
2019-03-02T15:53:56.534Z,7.40
2019-03-02T15:57:11.781Z,7.13
2019-03-02T16:00:21.435Z,7.07
2019-03-02T16:04:31.912Z,7.27
2019-03-02T16:07:54.348Z,6.33
2019-03-02T16:11:02.214Z,6.13
2019-03-02T16:14:11.710Z,5.83
2019-03-02T16:17:20.041Z,5.67
2019-03-02T16:20:28.617Z,5.77
2019-03-02T16:25:41.041Z,5.90
2019-03-02T16:28:48.058Z,4.90
2019-03-02T16:31:59.480Z,4.20
2019-03-02T16:35:40.423Z,4.23
2019-03-02T16:38:56.559Z,4.07
2019-03-02T16:42:12.642Z,4.77
2019-03-02T16:45:20.461Z,4.30
2019-03-02T16:48:29.003Z,4.00
2019-03-02T16:51:37.108Z,4.57
2019-03-02T16:54:52.366Z,4.60
2019-03-02T16:58:00.499Z,3.53
2019-03-02T17:01:08.674Z,3.70
2019-03-02T17:06:21.164Z,2.80
2019-03-02T17:09:59.984Z,2.63
2019-03-02T17:13:15.450Z,3.07
2019-03-02T17:16:24.074Z,2.70
2019-03-02T17:19:33.548Z,2.93
2019-03-02T17:22:41.799Z,3.27
2019-03-02T17:25:51.192Z,2.80
2019-03-02T17:29:03.630Z,2.90
2019-03-02T17:32:13.920Z,2.40
2019-03-02T17:35:35.601Z,2.70
2019-03-02T17:38:47.979Z,3.10
2019-03-02T17:41:56.154Z,2.43
2019-03-02T17:45:03.284Z,3.40
2019-03-02T17:48:11.411Z,2.70
2019-03-02T17:51:21.854Z,2.80
2019-03-02T17:56:37.152Z,2.60
2019-03-02T17:59:43.216Z,2.70
2019-03-02T18:02:55.947Z,2.73
2019-03-02T18:06:08.347Z,2.57
2019-03-02T18:09:16.928Z,3.10
2019-03-02T18:13:02.342Z,2.70
2019-03-02T18:16:22.428Z,2.57
2019-03-02T18:19:25.649Z,2.80
2019-03-02T18:22:28.761Z,2.73
2019-03-02T18:25:31.952Z,2.73
2019-03-02T18:28:35.159Z,2.60
2019-03-02T18:31:38.257Z,2.40
2019-03-02T18:34:41.418Z,2.53
2019-03-02T18:37:44.644Z,2.67
2019-03-02T18:40:47.739Z,2.70
2019-03-02T18:43:51.032Z,2.50
2019-03-02T18:46:54.239Z,3.27
2019-03-02T18:50:06.627Z,2.30
2019-03-02T18:53:09.925Z,2.17
2019-03-02T18:56:13.135Z,2.23
2019-03-02T18:59:16.295Z,2.40
2019-03-02T19:02:19.495Z,2.30
2019-03-02T19:05:30.003Z,2.43
2019-03-02T19:08:33.412Z,2.40
2019-03-02T19:11:36.559Z,2.40
2019-03-02T19:14:39.749Z,2.40
2019-03-02T19:17:43.241Z,2.17
2019-03-02T19:20:46.354Z,2.47
2019-03-02T19:23:49.610Z,2.57
2019-03-02T19:26:52.738Z,2.17
2019-03-02T19:29:55.922Z,2.20
2019-03-02T19:32:59.391Z,2.30
2019-03-02T19:36:02.511Z,2.07
2019-03-02T19:39:13.803Z,2.20
2019-03-02T19:42:16.950Z,2.40
2019-03-02T19:45:20.290Z,2.43
2019-03-02T19:48:23.475Z,2.20
2019-03-02T19:51:26.678Z,2.33
2019-03-02T19:54:29.899Z,2.40
2019-03-02T19:57:33.915Z,2.50
2019-03-02T20:00:37.971Z,2.13
2019-03-02T20:03:41.227Z,2.20
2019-03-02T20:06:44.404Z,2.40
2019-03-02T20:09:47.596Z,2.40
2019-03-02T20:12:50.806Z,2.33
2019-03-02T20:15:54.039Z,2.50
2019-03-02T20:18:58.397Z,2.33
2019-03-02T20:22:00.439Z,2.30
2019-03-02T20:25:03.878Z,2.53
2019-03-02T20:28:07.167Z,2.20
2019-03-02T20:31:10.302Z,2.60
2019-03-02T20:34:13.583Z,2.30
2019-03-02T20:37:16.863Z,2.27
2019-03-02T20:40:20.673Z,2.43
2019-03-02T20:43:23.897Z,2.50
2019-03-02T20:46:27.059Z,2.30
2019-03-02T20:49:30.251Z,2.00
2019-03-02T20:52:33.452Z,2.27
2019-03-02T20:55:36.643Z,2.00
2019-03-02T20:58:39.827Z,2.27
2019-03-02T21:01:42.960Z,2.00
2019-03-02T21:04:46.122Z,2.10
2019-03-02T21:07:49.216Z,2.07
2019-03-02T21:10:52.324Z,2.07
2019-03-02T21:13:55.519Z,2.00
2019-03-02T21:16:58.700Z,2.00
2019-03-02T21:20:01.912Z,2.10
2019-03-02T21:23:05.199Z,2.00
2019-03-02T21:26:08.379Z,2.00
2019-03-02T21:29:11.468Z,2.57
2019-03-02T21:32:14.663Z,2.13
2019-03-02T21:35:17.867Z,2.23
2019-03-02T21:38:21.050Z,2.07
2019-03-02T21:41:24.166Z,2.17
2019-03-02T21:44:27.347Z,2.63
2019-03-02T21:47:30.443Z,2.23
2019-03-02T21:50:33.857Z,2.40
2019-03-02T21:53:37.017Z,2.50
2019-03-02T21:56:40.107Z,2.50
2019-03-02T21:59:43.200Z,2.80
2019-03-02T22:02:46.399Z,2.83
2019-03-02T22:05:49.499Z,2.77
2019-03-02T22:08:52.691Z,2.37
2019-03-02T22:11:55.902Z,2.50
2019-03-02T22:14:59.076Z,2.50
2019-03-02T22:18:02.329Z,2.50
2019-03-02T22:21:05.575Z,2.67
2019-03-02T22:24:08.763Z,2.70
2019-03-02T22:27:11.958Z,2.60
2019-03-02T22:30:18.504Z,2.57
2019-03-02T22:33:21.627Z,2.20
2019-03-02T22:36:24.729Z,2.43
2019-03-02T22:39:27.935Z,2.57
2019-03-02T22:42:31.011Z,2.53
2019-03-02T22:45:34.219Z,2.23
2019-03-02T22:48:37.418Z,2.43
2019-03-02T22:51:40.507Z,2.30
2019-03-02T22:54:43.672Z,2.70
2019-03-02T22:57:48.535Z,2.50
2019-03-02T23:01:33.275Z,2.30
2019-03-02T23:04:36.391Z,2.13
2019-03-02T23:07:39.576Z,2.10
2019-03-02T23:10:42.824Z,2.10
2019-03-02T23:13:45.969Z,2.00
2019-03-02T23:16:49.159Z,2.00
2019-03-02T23:19:52.357Z,2.00
2019-03-02T23:22:55.563Z,2.13
2019-03-02T23:25:58.734Z,1.63
2019-03-02T23:29:01.953Z,1.80
2019-03-02T23:32:05.133Z,1.70
2019-03-02T23:35:08.334Z,2.07
2019-03-02T23:38:12.336Z,2.10
2019-03-02T23:41:15.511Z,1.70
2019-03-02T23:44:18.611Z,2.00
2019-03-02T23:47:21.724Z,2.20
2019-03-02T23:50:24.898Z,1.80
2019-03-02T23:53:28.110Z,1.70
2019-03-02T23:56:31.186Z,2.00
2019-03-02T23:59:34.297Z,1.80
